sensor_id;sensor_type;location;lat;lon;timestamp;P1;durP1;ratioP1;P2;durP2;ratioP2
3249;SDS011;1637;42.020;23.992;2023-04-24T00:01:00;23.37;;;14.43;;
3249;SDS011;1637;42.020;23.992;2023-04-24T00:03:27;25.73;;;13.43;;
3249;SDS011;1637;42.020;23.992;2023-04-24T00:05:55;21.33;;;14.00;;
3249;SDS011;1637;42.020;23.992;2023-04-24T00:08:22;22.53;;;12.83;;
3249;SDS011;1637;42.020;23.992;2023-04-24T00:10:49;21.17;;;13.50;;
3249;SDS011;1637;42.020;23.992;2023-04-24T00:13:18;22.10;;;13.93;;
3249;SDS011;1637;42.020;23.992;2023-04-24T00:15:45;25.07;;;12.90;;
3249;SDS011;1637;42.020;23.992;2023-04-24T00:18:12;25.00;;;14.73;;
3249;SDS011;1637;42.020;23.992;2023-04-24T00:20:39;35.77;;;13.30;;
3249;SDS011;1637;42.020;23.992;2023-04-24T00:23:06;23.07;;;13.93;;
3249;SDS011;1637;42.020;23.992;2023-04-24T00:25:33;23.90;;;13.33;;
3249;SDS011;1637;42.020;23.992;2023-04-24T00:27:59;29.57;;;13.50;;
3249;SDS011;1637;42.020;23.992;2023-04-24T00:30:28;24.37;;;13.60;;
3249;SDS011;1637;42.020;23.992;2023-04-24T00:32:55;23.40;;;13.10;;
3249;SDS011;1637;42.020;23.992;2023-04-24T00:35:22;29.20;;;14.73;;
3249;SDS011;1637;42.020;23.992;2023-04-24T00:37:49;18.53;;;13.03;;
3249;SDS011;1637;42.020;23.992;2023-04-24T00:40:16;25.00;;;13.23;;
3249;SDS011;1637;42.020;23.992;2023-04-24T00:42:43;16.53;;;12.20;;
3249;SDS011;1637;42.020;23.992;2023-04-24T00:45:10;19.17;;;12.40;;
3249;SDS011;1637;42.020;23.992;2023-04-24T00:47:39;19.20;;;11.60;;
3249;SDS011;1637;42.020;23.992;2023-04-24T00:50:08;17.33;;;11.87;;
3249;SDS011;1637;42.020;23.992;2023-04-24T00:52:36;18.83;;;12.67;;
3249;SDS011;1637;42.020;23.992;2023-04-24T00:55:06;22.13;;;13.70;;
3249;SDS011;1637;42.020;23.992;2023-04-24T00:57:33;27.43;;;13.13;;
3249;SDS011;1637;42.020;23.992;2023-04-24T01:00:00;27.60;;;14.00;;
3249;SDS011;1637;42.020;23.992;2023-04-24T01:02:28;32.43;;;16.80;;
3249;SDS011;1637;42.020;23.992;2023-04-24T01:04:56;21.63;;;12.37;;
3249;SDS011;1637;42.020;23.992;2023-04-24T01:07:23;19.67;;;12.20;;
3249;SDS011;1637;42.020;23.992;2023-04-24T01:09:51;22.47;;;12.47;;
3249;SDS011;1637;42.020;23.992;2023-04-24T01:12:19;15.60;;;11.03;;
3249;SDS011;1637;42.020;23.992;2023-04-24T01:14:46;22.67;;;12.40;;
3249;SDS011;1637;42.020;23.992;2023-04-24T01:17:12;21.13;;;12.83;;
3249;SDS011;1637;42.020;23.992;2023-04-24T01:19:40;24.10;;;13.30;;
3249;SDS011;1637;42.020;23.992;2023-04-24T01:22:11;20.23;;;12.50;;
3249;SDS011;1637;42.020;23.992;2023-04-24T01:24:40;20.70;;;12.77;;
3249;SDS011;1637;42.020;23.992;2023-04-24T01:27:08;22.00;;;12.80;;
3249;SDS011;1637;42.020;23.992;2023-04-24T01:29:35;21.43;;;12.93;;
3249;SDS011;1637;42.020;23.992;2023-04-24T01:32:02;19.27;;;12.20;;
3249;SDS011;1637;42.020;23.992;2023-04-24T01:34:30;19.97;;;12.30;;
3249;SDS011;1637;42.020;23.992;2023-04-24T01:36:57;17.73;;;12.07;;
3249;SDS011;1637;42.020;23.992;2023-04-24T01:39:26;23.77;;;11.70;;
3249;SDS011;1637;42.020;23.992;2023-04-24T01:41:53;24.53;;;12.37;;
3249;SDS011;1637;42.020;23.992;2023-04-24T01:44:21;22.63;;;12.77;;
3249;SDS011;1637;42.020;23.992;2023-04-24T01:46:48;21.60;;;13.27;;
3249;SDS011;1637;42.020;23.992;2023-04-24T01:49:15;21.47;;;12.90;;
3249;SDS011;1637;42.020;23.992;2023-04-24T01:51:42;23.03;;;12.33;;
3249;SDS011;1637;42.020;23.992;2023-04-24T01:54:09;23.77;;;12.60;;
3249;SDS011;1637;42.020;23.992;2023-04-24T01:56:37;21.10;;;12.90;;
3249;SDS011;1637;42.020;23.992;2023-04-24T01:59:07;18.50;;;11.43;;
3249;SDS011;1637;42.020;23.992;2023-04-24T02:01:35;20.87;;;12.73;;
3249;SDS011;1637;42.020;23.992;2023-04-24T02:04:02;25.00;;;13.83;;
3249;SDS011;1637;42.020;23.992;2023-04-24T02:06:30;23.50;;;12.83;;
3249;SDS011;1637;42.020;23.992;2023-04-24T02:08:57;26.13;;;15.07;;
3249;SDS011;1637;42.020;23.992;2023-04-24T02:11:24;19.97;;;12.43;;
3249;SDS011;1637;42.020;23.992;2023-04-24T02:13:53;24.57;;;13.40;;
3249;SDS011;1637;42.020;23.992;2023-04-24T02:16:20;22.73;;;13.93;;
3249;SDS011;1637;42.020;23.992;2023-04-24T02:18:46;25.70;;;13.40;;
3249;SDS011;1637;42.020;23.992;2023-04-24T02:21:13;19.60;;;12.77;;
3249;SDS011;1637;42.020;23.992;2023-04-24T02:23:40;22.37;;;12.47;;
3249;SDS011;1637;42.020;23.992;2023-04-24T02:26:07;23.17;;;14.37;;
3249;SDS011;1637;42.020;23.992;2023-04-24T02:28:34;26.27;;;18.80;;
3249;SDS011;1637;42.020;23.992;2023-04-24T02:31:02;22.80;;;13.43;;
3249;SDS011;1637;42.020;23.992;2023-04-24T02:33:29;23.37;;;16.47;;
3249;SDS011;1637;42.020;23.992;2023-04-24T02:35:55;19.73;;;14.80;;
3249;SDS011;1637;42.020;23.992;2023-04-24T02:38:22;22.30;;;13.33;;
3249;SDS011;1637;42.020;23.992;2023-04-24T02:40:49;22.33;;;13.60;;
3249;SDS011;1637;42.020;23.992;2023-04-24T02:43:16;22.43;;;14.03;;
3249;SDS011;1637;42.020;23.992;2023-04-24T02:45:42;24.63;;;13.30;;
3249;SDS011;1637;42.020;23.992;2023-04-24T02:48:11;25.33;;;14.60;;
3249;SDS011;1637;42.020;23.992;2023-04-24T02:50:37;19.03;;;12.40;;
3249;SDS011;1637;42.020;23.992;2023-04-24T02:53:04;19.57;;;13.20;;
3249;SDS011;1637;42.020;23.992;2023-04-24T02:55:31;20.70;;;13.37;;
3249;SDS011;1637;42.020;23.992;2023-04-24T02:57:58;20.60;;;12.20;;
3249;SDS011;1637;42.020;23.992;2023-04-24T03:00:25;26.70;;;13.07;;
3249;SDS011;1637;42.020;23.992;2023-04-24T03:02:52;23.83;;;13.50;;
3249;SDS011;1637;42.020;23.992;2023-04-24T03:05:20;22.13;;;12.27;;
3249;SDS011;1637;42.020;23.992;2023-04-24T03:07:47;20.63;;;11.70;;
3249;SDS011;1637;42.020;23.992;2023-04-24T03:10:14;22.90;;;13.43;;
3249;SDS011;1637;42.020;23.992;2023-04-24T03:12:40;20.17;;;12.83;;
3249;SDS011;1637;42.020;23.992;2023-04-24T03:15:08;19.40;;;13.23;;
3249;SDS011;1637;42.020;23.992;2023-04-24T03:17:35;22.87;;;14.23;;
3249;SDS011;1637;42.020;23.992;2023-04-24T03:20:02;18.53;;;12.60;;
3249;SDS011;1637;42.020;23.992;2023-04-24T03:22:32;23.93;;;12.57;;
3249;SDS011;1637;42.020;23.992;2023-04-24T03:24:59;21.80;;;14.30;;
3249;SDS011;1637;42.020;23.992;2023-04-24T03:27:26;23.70;;;14.67;;
3249;SDS011;1637;42.020;23.992;2023-04-24T03:29:53;24.40;;;13.57;;
3249;SDS011;1637;42.020;23.992;2023-04-24T03:32:20;20.43;;;13.50;;
3249;SDS011;1637;42.020;23.992;2023-04-24T03:34:48;25.80;;;13.13;;
3249;SDS011;1637;42.020;23.992;2023-04-24T03:37:15;17.70;;;12.50;;
3249;SDS011;1637;42.020;23.992;2023-04-24T03:39:43;23.43;;;13.03;;
3249;SDS011;1637;42.020;23.992;2023-04-24T03:42:10;22.23;;;13.60;;
3249;SDS011;1637;42.020;23.992;2023-04-24T03:44:37;19.23;;;13.43;;
3249;SDS011;1637;42.020;23.992;2023-04-24T03:47:04;18.07;;;11.63;;
3249;SDS011;1637;42.020;23.992;2023-04-24T03:49:31;19.70;;;12.10;;
3249;SDS011;1637;42.020;23.992;2023-04-24T03:51:57;21.73;;;11.50;;
3249;SDS011;1637;42.020;23.992;2023-04-24T03:54:25;27.40;;;13.80;;
3249;SDS011;1637;42.020;23.992;2023-04-24T03:56:53;25.63;;;13.00;;
3249;SDS011;1637;42.020;23.992;2023-04-24T03:59:20;20.00;;;12.57;;
3249;SDS011;1637;42.020;23.992;2023-04-24T04:01:47;18.90;;;12.63;;
3249;SDS011;1637;42.020;23.992;2023-04-24T04:04:14;22.10;;;13.10;;
3249;SDS011;1637;42.020;23.992;2023-04-24T04:06:40;25.80;;;15.40;;
3249;SDS011;1637;42.020;23.992;2023-04-24T04:09:07;37.77;;;21.27;;
3249;SDS011;1637;42.020;23.992;2023-04-24T04:11:34;52.00;;;28.77;;
3249;SDS011;1637;42.020;23.992;2023-04-24T04:14:03;37.37;;;23.13;;
3249;SDS011;1637;42.020;23.992;2023-04-24T04:16:30;42.97;;;24.37;;
3249;SDS011;1637;42.020;23.992;2023-04-24T04:18:57;37.97;;;23.30;;
3249;SDS011;1637;42.020;23.992;2023-04-24T04:21:24;44.40;;;26.70;;
3249;SDS011;1637;42.020;23.992;2023-04-24T04:23:52;32.33;;;19.23;;
3249;SDS011;1637;42.020;23.992;2023-04-24T04:26:19;23.80;;;15.77;;
3249;SDS011;1637;42.020;23.992;2023-04-24T04:28:46;26.33;;;15.40;;
3249;SDS011;1637;42.020;23.992;2023-04-24T04:31:15;29.80;;;17.07;;
3249;SDS011;1637;42.020;23.992;2023-04-24T04:33:42;35.00;;;18.50;;
3249;SDS011;1637;42.020;23.992;2023-04-24T04:36:09;32.60;;;20.07;;
3249;SDS011;1637;42.020;23.992;2023-04-24T04:38:35;54.40;;;27.60;;
3249;SDS011;1637;42.020;23.992;2023-04-24T04:41:03;46.53;;;25.87;;
3249;SDS011;1637;42.020;23.992;2023-04-24T04:43:30;44.33;;;24.90;;
3249;SDS011;1637;42.020;23.992;2023-04-24T04:45:59;45.40;;;26.40;;
3249;SDS011;1637;42.020;23.992;2023-04-24T04:48:29;29.43;;;19.50;;
3249;SDS011;1637;42.020;23.992;2023-04-24T04:50:56;35.63;;;21.70;;
3249;SDS011;1637;42.020;23.992;2023-04-24T04:53:23;39.50;;;22.00;;
3249;SDS011;1637;42.020;23.992;2023-04-24T04:55:51;38.80;;;23.87;;
3249;SDS011;1637;42.020;23.992;2023-04-24T04:58:17;38.97;;;22.93;;
3249;SDS011;1637;42.020;23.992;2023-04-24T05:00:45;39.03;;;23.90;;
3249;SDS011;1637;42.020;23.992;2023-04-24T05:03:11;37.13;;;22.90;;
3249;SDS011;1637;42.020;23.992;2023-04-24T05:05:40;43.37;;;25.90;;
3249;SDS011;1637;42.020;23.992;2023-04-24T05:08:06;38.73;;;22.40;;
3249;SDS011;1637;42.020;23.992;2023-04-24T05:10:34;56.87;;;25.97;;
3249;SDS011;1637;42.020;23.992;2023-04-24T05:13:02;37.17;;;22.43;;
3249;SDS011;1637;42.020;23.992;2023-04-24T05:15:29;39.03;;;24.30;;
3249;SDS011;1637;42.020;23.992;2023-04-24T05:17:56;44.90;;;24.17;;
3249;SDS011;1637;42.020;23.992;2023-04-24T05:20:23;43.80;;;24.13;;
3249;SDS011;1637;42.020;23.992;2023-04-24T05:22:51;35.80;;;20.73;;
3249;SDS011;1637;42.020;23.992;2023-04-24T05:25:18;34.37;;;20.83;;
3249;SDS011;1637;42.020;23.992;2023-04-24T05:27:45;30.13;;;20.80;;
3249;SDS011;1637;42.020;23.992;2023-04-24T05:30:12;24.00;;;17.77;;
3249;SDS011;1637;42.020;23.992;2023-04-24T05:32:39;24.17;;;15.87;;
3249;SDS011;1637;42.020;23.992;2023-04-24T05:35:06;26.57;;;17.27;;
3249;SDS011;1637;42.020;23.992;2023-04-24T05:37:34;23.90;;;17.67;;
3249;SDS011;1637;42.020;23.992;2023-04-24T05:40:02;19.60;;;13.67;;
3249;SDS011;1637;42.020;23.992;2023-04-24T05:42:30;30.07;;;20.80;;
3249;SDS011;1637;42.020;23.992;2023-04-24T05:44:57;41.67;;;23.27;;
3249;SDS011;1637;42.020;23.992;2023-04-24T05:47:24;32.40;;;23.23;;
3249;SDS011;1637;42.020;23.992;2023-04-24T05:49:51;38.10;;;27.37;;
3249;SDS011;1637;42.020;23.992;2023-04-24T05:52:18;35.17;;;24.33;;
3249;SDS011;1637;42.020;23.992;2023-04-24T05:54:45;40.03;;;22.53;;
3249;SDS011;1637;42.020;23.992;2023-04-24T05:57:13;59.30;;;31.00;;
3249;SDS011;1637;42.020;23.992;2023-04-24T05:59:40;48.03;;;31.37;;
3249;SDS011;1637;42.020;23.992;2023-04-24T06:02:07;35.00;;;24.23;;
3249;SDS011;1637;42.020;23.992;2023-04-24T06:04:34;39.30;;;24.03;;
3249;SDS011;1637;42.020;23.992;2023-04-24T06:07:01;65.63;;;40.20;;
3249;SDS011;1637;42.020;23.992;2023-04-24T06:09:28;67.53;;;38.07;;
3249;SDS011;1637;42.020;23.992;2023-04-24T06:11:55;34.73;;;22.87;;
3249;SDS011;1637;42.020;23.992;2023-04-24T06:14:23;29.60;;;22.37;;
3249;SDS011;1637;42.020;23.992;2023-04-24T06:16:50;35.03;;;28.80;;
3249;SDS011;1637;42.020;23.992;2023-04-24T06:19:17;36.40;;;30.90;;
3249;SDS011;1637;42.020;23.992;2023-04-24T06:21:44;40.40;;;29.67;;
3249;SDS011;1637;42.020;23.992;2023-04-24T06:24:13;36.67;;;28.63;;
3249;SDS011;1637;42.020;23.992;2023-04-24T06:26:41;32.13;;;22.07;;
3249;SDS011;1637;42.020;23.992;2023-04-24T06:29:07;28.73;;;21.63;;
3249;SDS011;1637;42.020;23.992;2023-04-24T06:31:36;29.47;;;18.43;;
3249;SDS011;1637;42.020;23.992;2023-04-24T06:34:03;30.77;;;17.10;;
3249;SDS011;1637;42.020;23.992;2023-04-24T06:36:30;21.20;;;15.73;;
3249;SDS011;1637;42.020;23.992;2023-04-24T06:38:59;26.10;;;17.83;;
3249;SDS011;1637;42.020;23.992;2023-04-24T06:41:26;41.93;;;23.27;;
3249;SDS011;1637;42.020;23.992;2023-04-24T06:43:53;31.47;;;20.53;;
3249;SDS011;1637;42.020;23.992;2023-04-24T06:46:20;19.73;;;14.90;;
3249;SDS011;1637;42.020;23.992;2023-04-24T06:48:48;25.93;;;17.00;;
3249;SDS011;1637;42.020;23.992;2023-04-24T06:51:16;31.97;;;28.77;;
3249;SDS011;1637;42.020;23.992;2023-04-24T06:53:43;23.97;;;18.47;;
3249;SDS011;1637;42.020;23.992;2023-04-24T06:56:10;18.87;;;12.80;;
3249;SDS011;1637;42.020;23.992;2023-04-24T06:58:37;19.10;;;13.77;;
3249;SDS011;1637;42.020;23.992;2023-04-24T07:01:04;21.20;;;8.83;;
3249;SDS011;1637;42.020;23.992;2023-04-24T07:03:31;41.20;;;12.50;;
3249;SDS011;1637;42.020;23.992;2023-04-24T07:05:59;13.10;;;9.37;;
3249;SDS011;1637;42.020;23.992;2023-04-24T07:08:26;7.97;;;7.17;;
3249;SDS011;1637;42.020;23.992;2023-04-24T07:10:53;20.17;;;10.93;;
3249;SDS011;1637;42.020;23.992;2023-04-24T07:13:21;15.37;;;9.37;;
3249;SDS011;1637;42.020;23.992;2023-04-24T07:15:48;11.20;;;8.53;;
3249;SDS011;1637;42.020;23.992;2023-04-24T07:18:17;14.40;;;6.43;;
3249;SDS011;1637;42.020;23.992;2023-04-24T07:20:44;10.27;;;7.50;;
3249;SDS011;1637;42.020;23.992;2023-04-24T07:23:12;19.37;;;7.10;;
3249;SDS011;1637;42.020;23.992;2023-04-24T07:25:39;10.27;;;7.47;;
3249;SDS011;1637;42.020;23.992;2023-04-24T07:28:06;11.63;;;8.10;;
3249;SDS011;1637;42.020;23.992;2023-04-24T07:30:33;52.03;;;24.07;;
3249;SDS011;1637;42.020;23.992;2023-04-24T07:33:00;13.80;;;9.57;;
3249;SDS011;1637;42.020;23.992;2023-04-24T07:35:27;11.97;;;7.30;;
3249;SDS011;1637;42.020;23.992;2023-04-24T07:37:54;11.67;;;8.50;;
3249;SDS011;1637;42.020;23.992;2023-04-24T07:40:22;8.47;;;5.67;;
3249;SDS011;1637;42.020;23.992;2023-04-24T07:42:49;11.70;;;5.70;;
3249;SDS011;1637;42.020;23.992;2023-04-24T07:45:16;11.60;;;6.87;;
3249;SDS011;1637;42.020;23.992;2023-04-24T07:47:43;10.73;;;8.37;;
3249;SDS011;1637;42.020;23.992;2023-04-24T07:50:10;11.03;;;6.73;;
3249;SDS011;1637;42.020;23.992;2023-04-24T07:52:37;24.60;;;14.07;;
3249;SDS011;1637;42.020;23.992;2023-04-24T07:55:04;9.60;;;5.80;;
3249;SDS011;1637;42.020;23.992;2023-04-24T07:57:33;16.20;;;6.87;;
3249;SDS011;1637;42.020;23.992;2023-04-24T08:00:00;11.83;;;6.30;;
3249;SDS011;1637;42.020;23.992;2023-04-24T08:02:29;10.53;;;6.90;;
3249;SDS011;1637;42.020;23.992;2023-04-24T08:04:55;28.33;;;16.47;;
3249;SDS011;1637;42.020;23.992;2023-04-24T08:07:23;13.10;;;8.13;;
3249;SDS011;1637;42.020;23.992;2023-04-24T08:09:49;9.23;;;7.73;;
3249;SDS011;1637;42.020;23.992;2023-04-24T08:12:16;11.13;;;7.73;;
3249;SDS011;1637;42.020;23.992;2023-04-24T08:14:44;12.70;;;6.90;;
3249;SDS011;1637;42.020;23.992;2023-04-24T08:17:11;12.30;;;8.00;;
3249;SDS011;1637;42.020;23.992;2023-04-24T08:19:39;12.27;;;8.40;;
3249;SDS011;1637;42.020;23.992;2023-04-24T08:22:09;10.80;;;6.50;;
3249;SDS011;1637;42.020;23.992;2023-04-24T08:24:36;11.43;;;6.97;;
3249;SDS011;1637;42.020;23.992;2023-04-24T08:27:03;8.13;;;6.60;;
3249;SDS011;1637;42.020;23.992;2023-04-24T08:29:30;9.90;;;6.50;;
3249;SDS011;1637;42.020;23.992;2023-04-24T08:31:58;7.50;;;6.70;;
3249;SDS011;1637;42.020;23.992;2023-04-24T08:34:25;8.57;;;6.60;;
3249;SDS011;1637;42.020;23.992;2023-04-24T08:36:52;16.53;;;12.77;;
3249;SDS011;1637;42.020;23.992;2023-04-24T08:39:18;13.50;;;9.70;;
3249;SDS011;1637;42.020;23.992;2023-04-24T08:41:46;7.50;;;6.80;;
3249;SDS011;1637;42.020;23.992;2023-04-24T08:44:15;6.97;;;6.30;;
3249;SDS011;1637;42.020;23.992;2023-04-24T08:46:43;7.63;;;6.67;;
3249;SDS011;1637;42.020;23.992;2023-04-24T08:49:14;14.50;;;9.13;;
3249;SDS011;1637;42.020;23.992;2023-04-24T08:51:42;20.70;;;12.33;;
3249;SDS011;1637;42.020;23.992;2023-04-24T08:54:09;31.00;;;8.23;;
3249;SDS011;1637;42.020;23.992;2023-04-24T08:56:37;11.20;;;6.90;;
3249;SDS011;1637;42.020;23.992;2023-04-24T08:59:06;11.90;;;6.17;;
3249;SDS011;1637;42.020;23.992;2023-04-24T09:01:34;9.37;;;6.00;;
3249;SDS011;1637;42.020;23.992;2023-04-24T09:04:02;10.97;;;5.90;;
3249;SDS011;1637;42.020;23.992;2023-04-24T09:06:31;9.53;;;6.83;;
3249;SDS011;1637;42.020;23.992;2023-04-24T09:08:59;7.13;;;5.80;;
3249;SDS011;1637;42.020;23.992;2023-04-24T09:11:29;6.30;;;5.70;;
3249;SDS011;1637;42.020;23.992;2023-04-24T09:13:56;10.80;;;6.67;;
3249;SDS011;1637;42.020;23.992;2023-04-24T09:16:24;6.73;;;5.63;;
3249;SDS011;1637;42.020;23.992;2023-04-24T09:18:52;13.03;;;6.77;;
3249;SDS011;1637;42.020;23.992;2023-04-24T09:21:20;5.20;;;4.27;;
3249;SDS011;1637;42.020;23.992;2023-04-24T09:23:49;9.40;;;6.20;;
3249;SDS011;1637;42.020;23.992;2023-04-24T09:26:24;8.07;;;7.27;;
3249;SDS011;1637;42.020;23.992;2023-04-24T09:28:53;6.10;;;5.50;;
3249;SDS011;1637;42.020;23.992;2023-04-24T09:31:19;5.87;;;5.27;;
3249;SDS011;1637;42.020;23.992;2023-04-24T09:33:53;10.17;;;8.93;;
3249;SDS011;1637;42.020;23.992;2023-04-24T09:36:26;6.60;;;5.20;;
3249;SDS011;1637;42.020;23.992;2023-04-24T09:38:58;5.63;;;5.13;;
3249;SDS011;1637;42.020;23.992;2023-04-24T09:41:27;10.03;;;6.30;;
3249;SDS011;1637;42.020;23.992;2023-04-24T09:43:55;5.97;;;4.70;;
3249;SDS011;1637;42.020;23.992;2023-04-24T09:46:28;12.77;;;6.30;;
3249;SDS011;1637;42.020;23.992;2023-04-24T09:48:56;7.00;;;5.83;;
3249;SDS011;1637;42.020;23.992;2023-04-24T09:51:33;5.93;;;5.33;;
3249;SDS011;1637;42.020;23.992;2023-04-24T09:54:03;6.33;;;3.97;;
3249;SDS011;1637;42.020;23.992;2023-04-24T09:56:32;11.20;;;4.80;;
3249;SDS011;1637;42.020;23.992;2023-04-24T09:59:06;6.73;;;4.73;;
3249;SDS011;1637;42.020;23.992;2023-04-24T10:01:33;12.90;;;6.03;;
3249;SDS011;1637;42.020;23.992;2023-04-24T10:04:00;6.90;;;4.13;;
3249;SDS011;1637;42.020;23.992;2023-04-24T10:06:31;6.33;;;4.33;;
3249;SDS011;1637;42.020;23.992;2023-04-24T10:09:00;7.90;;;5.30;;
3249;SDS011;1637;42.020;23.992;2023-04-24T10:11:30;8.40;;;4.03;;
3249;SDS011;1637;42.020;23.992;2023-04-24T10:13:57;9.10;;;5.57;;
3249;SDS011;1637;42.020;23.992;2023-04-24T10:16:24;13.53;;;6.37;;
3249;SDS011;1637;42.020;23.992;2023-04-24T10:18:53;12.07;;;6.60;;
3249;SDS011;1637;42.020;23.992;2023-04-24T10:21:21;16.80;;;5.33;;
3249;SDS011;1637;42.020;23.992;2023-04-24T10:23:49;12.70;;;7.40;;
3249;SDS011;1637;42.020;23.992;2023-04-24T10:26:16;8.43;;;5.93;;
3249;SDS011;1637;42.020;23.992;2023-04-24T10:28:46;25.70;;;16.00;;
3249;SDS011;1637;42.020;23.992;2023-04-24T10:31:14;20.00;;;10.00;;
3249;SDS011;1637;42.020;23.992;2023-04-24T10:33:41;19.10;;;11.70;;
3249;SDS011;1637;42.020;23.992;2023-04-24T10:36:10;15.70;;;8.60;;
3249;SDS011;1637;42.020;23.992;2023-04-24T10:38:38;6.17;;;5.47;;
3249;SDS011;1637;42.020;23.992;2023-04-24T10:41:08;11.33;;;4.50;;
3249;SDS011;1637;42.020;23.992;2023-04-24T10:43:41;14.43;;;4.53;;
3249;SDS011;1637;42.020;23.992;2023-04-24T10:46:10;12.17;;;6.50;;
3249;SDS011;1637;42.020;23.992;2023-04-24T10:48:41;7.13;;;4.00;;
3249;SDS011;1637;42.020;23.992;2023-04-24T10:51:11;4.57;;;4.17;;
3249;SDS011;1637;42.020;23.992;2023-04-24T10:53:39;7.07;;;5.30;;
3249;SDS011;1637;42.020;23.992;2023-04-24T10:56:06;9.80;;;5.87;;
3249;SDS011;1637;42.020;23.992;2023-04-24T10:58:38;10.13;;;4.83;;
3249;SDS011;1637;42.020;23.992;2023-04-24T11:01:10;4.87;;;3.57;;
3249;SDS011;1637;42.020;23.992;2023-04-24T11:03:50;7.20;;;5.07;;
3249;SDS011;1637;42.020;23.992;2023-04-24T11:06:26;6.70;;;4.70;;
3249;SDS011;1637;42.020;23.992;2023-04-24T11:08:59;14.70;;;7.07;;
3249;SDS011;1637;42.020;23.992;2023-04-24T11:11:30;11.43;;;5.13;;
3249;SDS011;1637;42.020;23.992;2023-04-24T11:14:01;6.57;;;5.80;;
3249;SDS011;1637;42.020;23.992;2023-04-24T11:16:33;61.13;;;21.30;;
3249;SDS011;1637;42.020;23.992;2023-04-24T11:19:01;10.30;;;5.97;;
3249;SDS011;1637;42.020;23.992;2023-04-24T11:21:39;6.83;;;5.90;;
3249;SDS011;1637;42.020;23.992;2023-04-24T11:24:23;7.57;;;5.37;;
3249;SDS011;1637;42.020;23.992;2023-04-24T11:26:51;4.87;;;4.00;;
3249;SDS011;1637;42.020;23.992;2023-04-24T11:29:20;4.57;;;4.07;;
3249;SDS011;1637;42.020;23.992;2023-04-24T11:31:49;4.97;;;3.93;;
3249;SDS011;1637;42.020;23.992;2023-04-24T11:34:17;6.17;;;4.10;;
3249;SDS011;1637;42.020;23.992;2023-04-24T11:36:44;8.10;;;3.53;;
3249;SDS011;1637;42.020;23.992;2023-04-24T11:39:11;4.17;;;3.40;;
3249;SDS011;1637;42.020;23.992;2023-04-24T11:41:39;8.60;;;3.37;;
3249;SDS011;1637;42.020;23.992;2023-04-24T11:44:06;6.00;;;3.93;;
3249;SDS011;1637;42.020;23.992;2023-04-24T11:46:34;4.73;;;4.23;;
3249;SDS011;1637;42.020;23.992;2023-04-24T11:49:04;7.40;;;4.90;;
3249;SDS011;1637;42.020;23.992;2023-04-24T11:51:31;5.40;;;3.40;;
3249;SDS011;1637;42.020;23.992;2023-04-24T11:53:58;5.40;;;3.80;;
3249;SDS011;1637;42.020;23.992;2023-04-24T11:56:25;6.40;;;4.23;;
3249;SDS011;1637;42.020;23.992;2023-04-24T11:58:52;8.77;;;4.50;;
3249;SDS011;1637;42.020;23.992;2023-04-24T12:01:20;8.53;;;5.30;;
3249;SDS011;1637;42.020;23.992;2023-04-24T12:03:47;6.80;;;4.73;;
3249;SDS011;1637;42.020;23.992;2023-04-24T12:06:17;6.17;;;3.57;;
3249;SDS011;1637;42.020;23.992;2023-04-24T12:08:48;8.60;;;4.03;;
3249;SDS011;1637;42.020;23.992;2023-04-24T12:11:15;22.83;;;5.63;;
3249;SDS011;1637;42.020;23.992;2023-04-24T12:13:47;9.50;;;4.50;;
3249;SDS011;1637;42.020;23.992;2023-04-24T12:16:13;8.77;;;3.83;;
3249;SDS011;1637;42.020;23.992;2023-04-24T12:18:41;7.90;;;4.77;;
3249;SDS011;1637;42.020;23.992;2023-04-24T12:21:18;5.93;;;4.13;;
3249;SDS011;1637;42.020;23.992;2023-04-24T12:23:45;3.23;;;2.90;;
3249;SDS011;1637;42.020;23.992;2023-04-24T12:26:15;10.17;;;6.33;;
3249;SDS011;1637;42.020;23.992;2023-04-24T12:28:45;9.40;;;3.37;;
3249;SDS011;1637;42.020;23.992;2023-04-24T12:31:14;5.70;;;3.73;;
3249;SDS011;1637;42.020;23.992;2023-04-24T12:33:41;6.10;;;4.47;;
3249;SDS011;1637;42.020;23.992;2023-04-24T12:36:09;12.13;;;5.70;;
3249;SDS011;1637;42.020;23.992;2023-04-24T12:38:38;5.53;;;4.20;;
3249;SDS011;1637;42.020;23.992;2023-04-24T12:41:09;10.20;;;5.67;;
3249;SDS011;1637;42.020;23.992;2023-04-24T12:43:37;4.50;;;4.00;;
3249;SDS011;1637;42.020;23.992;2023-04-24T12:46:04;7.90;;;4.43;;
3249;SDS011;1637;42.020;23.992;2023-04-24T12:48:31;11.30;;;5.20;;
3249;SDS011;1637;42.020;23.992;2023-04-24T12:50:58;6.37;;;5.03;;
3249;SDS011;1637;42.020;23.992;2023-04-24T12:53:27;7.47;;;5.40;;
3249;SDS011;1637;42.020;23.992;2023-04-24T12:55:57;5.47;;;4.00;;
3249;SDS011;1637;42.020;23.992;2023-04-24T12:58:24;4.70;;;4.30;;
3249;SDS011;1637;42.020;23.992;2023-04-24T13:00:51;7.70;;;5.47;;
3249;SDS011;1637;42.020;23.992;2023-04-24T13:03:18;7.00;;;6.03;;
3249;SDS011;1637;42.020;23.992;2023-04-24T13:05:45;72.77;;;26.10;;
3249;SDS011;1637;42.020;23.992;2023-04-24T13:08:12;22.77;;;11.00;;
3249;SDS011;1637;42.020;23.992;2023-04-24T13:10:39;5.70;;;3.60;;
3249;SDS011;1637;42.020;23.992;2023-04-24T13:13:08;23.07;;;8.87;;
3249;SDS011;1637;42.020;23.992;2023-04-24T13:15:35;13.23;;;7.90;;
3249;SDS011;1637;42.020;23.992;2023-04-24T13:18:02;14.17;;;9.00;;
3249;SDS011;1637;42.020;23.992;2023-04-24T13:20:29;12.77;;;7.00;;
3249;SDS011;1637;42.020;23.992;2023-04-24T13:22:55;24.50;;;10.57;;
3249;SDS011;1637;42.020;23.992;2023-04-24T13:25:22;30.30;;;15.93;;
3249;SDS011;1637;42.020;23.992;2023-04-24T13:27:50;15.13;;;7.27;;
3249;SDS011;1637;42.020;23.992;2023-04-24T13:30:18;14.60;;;7.80;;
3249;SDS011;1637;42.020;23.992;2023-04-24T13:32:45;10.23;;;6.43;;
3249;SDS011;1637;42.020;23.992;2023-04-24T13:35:12;7.40;;;6.73;;
3249;SDS011;1637;42.020;23.992;2023-04-24T13:37:39;9.83;;;8.83;;
3249;SDS011;1637;42.020;23.992;2023-04-24T13:40:06;6.43;;;4.80;;
3249;SDS011;1637;42.020;23.992;2023-04-24T13:42:34;5.90;;;4.80;;
3249;SDS011;1637;42.020;23.992;2023-04-24T13:45:01;8.53;;;5.47;;
3249;SDS011;1637;42.020;23.992;2023-04-24T13:47:29;6.00;;;4.77;;
3249;SDS011;1637;42.020;23.992;2023-04-24T13:49:56;5.57;;;4.20;;
3249;SDS011;1637;42.020;23.992;2023-04-24T13:52:23;4.93;;;4.43;;
3249;SDS011;1637;42.020;23.992;2023-04-24T13:54:50;5.40;;;4.90;;
3249;SDS011;1637;42.020;23.992;2023-04-24T13:57:17;12.73;;;4.83;;
3249;SDS011;1637;42.020;23.992;2023-04-24T13:59:44;5.63;;;4.00;;
3249;SDS011;1637;42.020;23.992;2023-04-24T14:02:11;15.93;;;5.67;;
3249;SDS011;1637;42.020;23.992;2023-04-24T14:04:40;9.13;;;4.13;;
3249;SDS011;1637;42.020;23.992;2023-04-24T14:07:06;6.57;;;4.23;;
3249;SDS011;1637;42.020;23.992;2023-04-24T14:09:34;8.57;;;3.83;;
3249;SDS011;1637;42.020;23.992;2023-04-24T14:12:00;17.83;;;4.63;;
3249;SDS011;1637;42.020;23.992;2023-04-24T14:14:28;5.40;;;4.10;;
3249;SDS011;1637;42.020;23.992;2023-04-24T14:16:56;11.67;;;5.17;;
3249;SDS011;1637;42.020;23.992;2023-04-24T14:19:23;9.10;;;4.50;;
3249;SDS011;1637;42.020;23.992;2023-04-24T14:21:51;23.73;;;14.57;;
3249;SDS011;1637;42.020;23.992;2023-04-24T14:24:18;7.33;;;5.07;;
3249;SDS011;1637;42.020;23.992;2023-04-24T14:26:45;4.83;;;3.80;;
3249;SDS011;1637;42.020;23.992;2023-04-24T14:29:12;4.87;;;3.73;;
3249;SDS011;1637;42.020;23.992;2023-04-24T14:31:39;4.50;;;3.97;;
3249;SDS011;1637;42.020;23.992;2023-04-24T14:34:06;7.73;;;3.57;;
3249;SDS011;1637;42.020;23.992;2023-04-24T14:36:32;4.20;;;3.60;;
3249;SDS011;1637;42.020;23.992;2023-04-24T14:39:01;4.30;;;3.70;;
3249;SDS011;1637;42.020;23.992;2023-04-24T14:41:31;4.80;;;3.60;;
3249;SDS011;1637;42.020;23.992;2023-04-24T14:44:00;3.30;;;3.10;;
3249;SDS011;1637;42.020;23.992;2023-04-24T14:46:27;8.13;;;4.40;;
3249;SDS011;1637;42.020;23.992;2023-04-24T14:48:55;4.03;;;3.67;;